createdAt,value
2019-03-17T00:00:16.465Z,98407.45
2019-03-17T00:02:46.950Z,98410.30
2019-03-17T00:05:17.580Z,98408.27
2019-03-17T00:07:48.039Z,98406.75
2019-03-17T00:10:18.522Z,98402.89
2019-03-17T00:12:49.097Z,98403.75
2019-03-17T00:15:19.680Z,98407.61
2019-03-17T00:17:50.491Z,98408.03
2019-03-17T00:20:21.030Z,98408.11
2019-03-17T00:22:51.591Z,98409.09
2019-03-17T00:25:23.221Z,98414.39
2019-03-17T00:27:53.671Z,98403.86
2019-03-17T00:30:24.123Z,98407.49
2019-03-17T00:32:54.612Z,98402.66
2019-03-17T00:35:25.141Z,98401.69
2019-03-17T00:37:55.655Z,98403.13
2019-03-17T00:40:26.146Z,98401.69
2019-03-17T00:42:56.583Z,98401.22
2019-03-17T00:45:27.026Z,98399.85
2019-03-17T00:47:57.600Z,98394.39
2019-03-17T00:50:28.259Z,98398.25
2019-03-17T00:52:58.775Z,98400.28
2019-03-17T00:55:29.385Z,98407.18
2019-03-17T00:58:00.121Z,98397.39
2019-03-17T01:00:32.415Z,98405.73
2019-03-17T01:03:02.959Z,98400.75
2019-03-17T01:05:33.330Z,98397.05
2019-03-17T01:08:03.996Z,98395.91
2019-03-17T01:10:34.636Z,98392.72
2019-03-17T01:13:05.096Z,98387.53
2019-03-17T01:15:35.701Z,98395.56
2019-03-17T01:18:06.215Z,98388.20
2019-03-17T01:20:36.775Z,98390.77
2019-03-17T01:23:07.211Z,98385.94
2019-03-17T01:25:37.793Z,98386.09
2019-03-17T01:28:08.831Z,98381.10
2019-03-17T01:30:39.502Z,98380.59
2019-03-17T01:33:10.540Z,98372.33
2019-03-17T01:35:41.544Z,98371.82
2019-03-17T01:38:11.970Z,98367.61
2019-03-17T01:40:42.445Z,98367.30
2019-03-17T01:43:12.867Z,98368.05
2019-03-17T01:45:43.445Z,98363.72
2019-03-17T01:48:13.979Z,98360.67
2019-03-17T01:50:44.616Z,98356.03
2019-03-17T01:53:15.191Z,98357.86
2019-03-17T01:55:45.736Z,98345.58
2019-03-17T01:58:16.171Z,98344.37
2019-03-17T02:00:46.755Z,98342.19
2019-03-17T02:03:17.379Z,98343.98
2019-03-17T02:05:47.685Z,98342.38
2019-03-17T02:08:18.031Z,98331.89
2019-03-17T02:10:48.490Z,98333.68
2019-03-17T02:13:18.802Z,98331.89
2019-03-17T02:15:49.333Z,98330.29
2019-03-17T02:18:19.787Z,98329.00
2019-03-17T02:20:50.085Z,98336.26
2019-03-17T02:23:20.551Z,98342.19
2019-03-17T02:25:51.065Z,98337.55
2019-03-17T02:28:21.581Z,98340.58
2019-03-17T02:30:52.160Z,98339.06
2019-03-17T02:33:22.690Z,98338.09
2019-03-17T02:35:53.080Z,98336.67
2019-03-17T02:38:23.613Z,98328.20
2019-03-17T02:40:54.182Z,98324.73
2019-03-17T02:43:24.552Z,98320.33
2019-03-17T02:45:55.177Z,98328.05
2019-03-17T02:48:25.555Z,98323.22
2019-03-17T02:50:56.041Z,98329.66
2019-03-17T02:53:26.451Z,98324.12
2019-03-17T02:55:56.911Z,98320.02
2019-03-17T02:58:27.235Z,98312.84
2019-03-17T03:00:57.683Z,98312.38
2019-03-17T03:03:28.274Z,98307.15
2019-03-17T03:05:58.673Z,98302.95
2019-03-17T03:08:29.212Z,98303.73
2019-03-17T03:10:59.796Z,98301.41
2019-03-17T03:13:30.349Z,98300.55
2019-03-17T03:16:00.859Z,98305.19
2019-03-17T03:18:31.331Z,98305.12
2019-03-17T03:21:01.785Z,98299.35
2019-03-17T03:23:32.260Z,98294.45
2019-03-17T03:26:02.774Z,98291.45
2019-03-17T03:28:33.186Z,98290.23
2019-03-17T03:31:03.818Z,98285.02
2019-03-17T03:33:34.655Z,98287.19
2019-03-17T03:36:11.270Z,98288.48
2019-03-17T03:38:37.491Z,98286.87
2019-03-17T03:41:07.921Z,98285.73
2019-03-17T03:43:38.272Z,98280.84
2019-03-17T03:46:08.812Z,98277.07
2019-03-17T03:48:39.206Z,98270.39
2019-03-17T03:51:09.842Z,98271.36
2019-03-17T03:53:40.386Z,98266.92
2019-03-17T03:56:11.014Z,98269.34
2019-03-17T03:58:41.546Z,98267.73
2019-03-17T04:01:12.201Z,98265.16
2019-03-17T04:03:42.923Z,98266.61
2019-03-17T04:06:25.807Z,98263.31
2019-03-17T04:08:45.643Z,98271.27
2019-03-17T04:11:16.056Z,98265.31
2019-03-17T04:13:46.674Z,98263.41
2019-03-17T04:16:17.212Z,98261.97
2019-03-17T04:18:47.674Z,98261.47
2019-03-17T04:21:18.101Z,98253.91
2019-03-17T04:23:48.564Z,98251.73
2019-03-17T04:26:18.941Z,98251.43
2019-03-17T04:28:49.485Z,98247.16
2019-03-17T04:31:19.813Z,98244.35
2019-03-17T04:33:50.206Z,98244.39
2019-03-17T04:36:20.651Z,98245.91
2019-03-17T04:38:51.071Z,98243.58
2019-03-17T04:41:21.759Z,98247.00
2019-03-17T04:43:52.241Z,98244.34
2019-03-17T04:46:22.686Z,98238.84
2019-03-17T04:48:53.289Z,98240.51
2019-03-17T04:51:23.841Z,98242.39
2019-03-17T04:53:54.240Z,98242.38
2019-03-17T04:56:24.697Z,98247.06
2019-03-17T04:58:55.104Z,98249.84
2019-03-17T05:01:25.575Z,98243.35
2019-03-17T05:03:56.190Z,98248.79
2019-03-17T05:06:26.658Z,98253.53
2019-03-17T05:08:57.036Z,98260.44
2019-03-17T05:11:27.751Z,98255.14
2019-03-17T05:13:58.142Z,98241.94
2019-03-17T05:16:28.550Z,98241.13
2019-03-17T05:18:58.980Z,98245.42
2019-03-17T05:21:29.444Z,98232.20
2019-03-17T05:23:59.850Z,98220.97
2019-03-17T05:26:30.695Z,98221.25
2019-03-17T05:29:01.104Z,98212.63
2019-03-17T05:31:31.522Z,98209.02
2019-03-17T05:34:02.029Z,98205.84
2019-03-17T05:36:32.500Z,98201.13
2019-03-17T05:39:04.341Z,98189.58
2019-03-17T05:41:34.877Z,98187.32
2019-03-17T05:44:05.581Z,98184.59
2019-03-17T05:46:36.090Z,98186.03
2019-03-17T05:49:06.681Z,98184.67
2019-03-17T05:51:37.164Z,98192.58
2019-03-17T05:54:07.732Z,98188.14
2019-03-17T05:56:38.214Z,98196.48
2019-03-17T05:59:08.639Z,98187.52
2019-03-17T06:01:39.075Z,98190.30
2019-03-17T06:04:09.644Z,98185.65
2019-03-17T06:06:40.116Z,98184.66
2019-03-17T06:09:10.714Z,98182.44
2019-03-17T06:11:41.216Z,98185.50
2019-03-17T06:14:11.649Z,98178.94
2019-03-17T06:16:42.176Z,98178.41
2019-03-17T06:19:13.722Z,98180.14
2019-03-17T06:21:44.217Z,98177.67
2019-03-17T06:24:14.751Z,98177.30
2019-03-17T06:26:45.215Z,98176.55
2019-03-17T06:29:15.666Z,98182.16
2019-03-17T06:31:46.110Z,98182.25
2019-03-17T06:34:16.675Z,98177.69
2019-03-17T06:36:47.026Z,98177.18
2019-03-17T06:39:17.618Z,98171.69
2019-03-17T06:41:48.064Z,98171.48
2019-03-17T06:44:18.595Z,98164.31
2019-03-17T06:46:49.108Z,98165.31
2019-03-17T06:49:19.604Z,98161.28
2019-03-17T06:51:50.156Z,98159.21
2019-03-17T06:54:20.579Z,98157.23
2019-03-17T06:56:51.537Z,98151.17
2019-03-17T06:59:21.962Z,98146.81
2019-03-17T07:01:52.462Z,98153.33
2019-03-17T07:04:23.071Z,98158.91
2019-03-17T07:06:55.259Z,98145.14
2019-03-17T07:09:25.973Z,98159.07
2019-03-17T07:11:56.486Z,98152.78
2019-03-17T07:14:27.073Z,98150.38
2019-03-17T07:16:57.505Z,98144.24
2019-03-17T07:19:28.211Z,98138.40
2019-03-17T07:21:58.851Z,98138.09
2019-03-17T07:24:29.358Z,98130.58
2019-03-17T07:26:59.796Z,98137.94
2019-03-17T07:29:30.294Z,98131.00
2019-03-17T07:32:00.777Z,98126.88
2019-03-17T07:34:31.510Z,98132.61
2019-03-17T07:37:02.506Z,98128.44
2019-03-17T07:39:32.991Z,98128.84
2019-03-17T07:42:03.671Z,98114.91
2019-03-17T07:44:38.290Z,98115.60
2019-03-17T07:47:09.166Z,98107.05
2019-03-17T07:49:39.681Z,98105.41
2019-03-17T07:52:10.460Z,98103.52
2019-03-17T07:54:40.999Z,98104.09
2019-03-17T07:57:11.400Z,98105.19
2019-03-17T07:59:41.940Z,98110.33
2019-03-17T08:02:12.696Z,98109.03
2019-03-17T08:04:46.125Z,98100.52
2019-03-17T08:07:15.665Z,98101.91
2019-03-17T08:09:46.194Z,98107.97
2019-03-17T08:12:16.813Z,98106.56
2019-03-17T08:14:47.373Z,98106.22
2019-03-17T08:17:18.010Z,98102.77
2019-03-17T08:19:48.642Z,98098.66
2019-03-17T08:22:19.233Z,98104.56
2019-03-17T08:24:49.709Z,98097.70
2019-03-17T08:27:20.351Z,98091.84
2019-03-17T08:29:50.796Z,98094.95
2019-03-17T08:32:21.292Z,98097.94
2019-03-17T08:34:51.927Z,98100.11
2019-03-17T08:37:22.529Z,98101.73
2019-03-17T08:39:53.456Z,98097.69
2019-03-17T08:42:24.366Z,98097.77
2019-03-17T08:44:54.803Z,98102.68
2019-03-17T08:47:25.511Z,98097.59
2019-03-17T08:49:56.118Z,98093.84
2019-03-17T08:52:26.835Z,98092.82
2019-03-17T08:54:57.422Z,98093.11
2019-03-17T08:57:27.832Z,98087.87
2019-03-17T08:59:58.307Z,98095.00
2019-03-17T09:02:29.297Z,98091.38
2019-03-17T09:05:00.064Z,98086.36
2019-03-17T09:07:30.613Z,98093.47
2019-03-17T09:10:01.830Z,98084.25
2019-03-17T09:12:32.694Z,98074.92
2019-03-17T09:15:03.566Z,98091.19
2019-03-17T09:17:34.362Z,98087.20
2019-03-17T09:20:05.452Z,98093.72
2019-03-17T09:22:36.007Z,98083.98
2019-03-17T09:25:07.574Z,98060.11
2019-03-17T09:27:38.276Z,98083.72
2019-03-17T09:30:11.234Z,98079.33
2019-03-17T09:32:41.892Z,98078.86
2019-03-17T09:35:12.664Z,98087.26
2019-03-17T09:37:43.369Z,98082.00
2019-03-17T09:40:14.264Z,98075.41
2019-03-17T09:42:44.946Z,98066.05
2019-03-17T09:45:15.703Z,98060.98
2019-03-17T09:47:46.436Z,98073.53
2019-03-17T09:50:17.035Z,98064.03
2019-03-17T09:52:47.585Z,98055.29
2019-03-17T09:55:18.240Z,98039.36
2019-03-17T09:57:48.985Z,98054.67
2019-03-17T10:00:19.554Z,98046.50
2019-03-17T10:02:50.035Z,98041.69
2019-03-17T10:05:20.612Z,98036.41
2019-03-17T10:07:50.996Z,98031.53
2019-03-17T10:10:21.829Z,98051.53
2019-03-17T10:12:52.508Z,98025.27
2019-03-17T10:15:22.996Z,98028.66
2019-03-17T10:17:53.829Z,98022.14
2019-03-17T10:20:24.451Z,98026.00
2019-03-17T10:22:54.918Z,98021.38
2019-03-17T10:25:25.524Z,98019.72
2019-03-17T10:27:56.018Z,98023.48
2019-03-17T10:30:26.493Z,98013.83
2019-03-17T10:32:57.014Z,98020.52
2019-03-17T10:35:27.467Z,98023.12
2019-03-17T10:37:57.995Z,98022.44
2019-03-17T10:40:29.019Z,98009.86
2019-03-17T10:42:59.646Z,98028.19
2019-03-17T10:45:30.067Z,98010.34
2019-03-17T10:48:00.481Z,98018.87
2019-03-17T10:50:31.217Z,98023.84
2019-03-17T10:53:02.060Z,98021.28
2019-03-17T10:55:32.661Z,98006.56
2019-03-17T10:58:03.244Z,98008.48
2019-03-17T11:00:33.810Z,98002.09
2019-03-17T11:03:04.836Z,97999.38
2019-03-17T11:05:35.523Z,98002.01
2019-03-17T11:08:06.139Z,98004.78
2019-03-17T11:10:36.855Z,97996.95
2019-03-17T11:13:07.588Z,98000.64
2019-03-17T11:15:38.135Z,97997.84
2019-03-17T11:18:09.001Z,98006.58
2019-03-17T11:20:39.950Z,97996.57
2019-03-17T11:23:10.496Z,98010.55
2019-03-17T11:25:41.199Z,97999.40
2019-03-17T11:28:11.841Z,98003.67
2019-03-17T11:30:42.530Z,98010.66
2019-03-17T11:33:13.331Z,97987.88
2019-03-17T11:35:43.861Z,98005.28
2019-03-17T11:38:14.506Z,97983.70
2019-03-17T11:40:45.141Z,97993.19
2019-03-17T11:43:15.560Z,97978.27
2019-03-17T11:45:46.069Z,97991.23
2019-03-17T11:48:17.015Z,97985.07
